Time;durP1;ratioP1;P1;durP2;ratioP2;P2;SDS_P1;SDS_P2;PMS_P1;PMS_P2;Temp;Humidity;BMP_temperature;BMP_pressure;BME280_temperature;BME280_humidity;BME280_pressure;Samples;Min_cycle;Max_cycle;Signal;HPM_P1;HPM_P2
2023/05/19 00:03:01;;;;;;;12.85;3.30;;;;;;;;;;6322632;22;20165;-91
2023/05/19 00:06:08;;;;;;;10.05;3.65;;;;;;;;;;6322520;22;20176;-94
2023/05/19 00:09:13;;;;;;;7.55;3.42;;;;;;;;;;6320358;22;20161;-92
2023/05/19 00:12:21;;;;;;;8.68;3.40;;;;;;;;;;6322606;22;20188;-92
2023/05/19 00:15:26;;;;;;;8.07;3.83;;;;;;;;;;6320921;22;20150;-93
2023/05/19 00:18:35;;;;;;;12.15;3.60;;;;;;;;;;6319316;22;20171;-92
2023/05/19 00:22:06;;;;;;;9.98;3.60;;;;;;;;;;6320910;22;20165;-90
2023/05/19 00:25:11;;;;;;;11.65;3.50;;;;;;;;;;6320531;22;20168;-91
2023/05/19 00:28:18;;;;;;;11.55;4.03;;;;;;;;;;6320579;22;20251;-91
2023/05/19 00:31:23;;;;;;;11.13;3.35;;;;;;;;;;6320404;22;20169;-92
2023/05/19 00:34:29;;;;;;;9.00;3.90;;;;;;;;;;6303950;22;20168;-91
2023/05/19 00:37:34;;;;;;;14.95;3.80;;;;;;;;;;6320594;22;20165;-93
2023/05/19 00:40:39;;;;;;;15.48;3.83;;;;;;;;;;6320219;22;20166;-91
2023/05/19 00:43:46;;;;;;;9.13;4.35;;;;;;;;;;6304003;22;20165;-92
2023/05/19 00:46:52;;;;;;;14.07;3.65;;;;;;;;;;6321897;22;20279;-92
2023/05/19 00:49:57;;;;;;;11.65;3.83;;;;;;;;;;6320157;22;20168;-91
2023/05/19 00:53:02;;;;;;;10.77;3.58;;;;;;;;;;6321311;22;20145;-91
2023/05/19 00:56:07;;;;;;;15.95;4.20;;;;;;;;;;6321251;22;20164;-93
2023/05/19 00:59:14;;;;;;;11.82;3.90;;;;;;;;;;6303972;22;20180;-92
2023/05/19 01:02:20;;;;;;;13.18;4.03;;;;;;;;;;6322388;22;20166;-92
2023/05/19 01:05:24;;;;;;;14.85;4.35;;;;;;;;;;6322518;22;20512;-92
2023/05/19 01:08:30;;;;;;;9.00;4.28;;;;;;;;;;6302027;22;20173;-93
2023/05/19 01:11:35;;;;;;;9.70;3.63;;;;;;;;;;6321589;22;20164;-92
2023/05/19 01:14:42;;;;;;;10.02;3.58;;;;;;;;;;6320602;22;20165;-91
2023/05/19 01:17:54;;;;;;;10.65;3.63;;;;;;;;;;6321930;22;20173;-93
2023/05/19 01:21:05;;;;;;;11.85;3.70;;;;;;;;;;6321868;22;20250;-92
2023/05/19 01:24:24;;;;;;;8.57;3.33;;;;;;;;;;6321222;22;20188;-93
2023/05/19 01:27:40;;;;;;;13.90;3.70;;;;;;;;;;6320675;22;20165;-93
2023/05/19 01:30:49;;;;;;;11.60;3.72;;;;;;;;;;6303412;22;20265;-91
2023/05/19 01:33:55;;;;;;;12.32;4.10;;;;;;;;;;6321347;22;20165;-92
2023/05/19 01:37:03;;;;;;;9.88;3.60;;;;;;;;;;6302453;22;20165;-92
2023/05/19 01:40:09;;;;;;;11.70;3.63;;;;;;;;;;6304678;22;20153;-92
2023/05/19 01:43:17;;;;;;;9.20;3.78;;;;;;;;;;6322380;22;20597;-92
2023/05/19 01:46:25;;;;;;;10.02;3.83;;;;;;;;;;6303822;22;20160;-93
2023/05/19 01:49:30;;;;;;;8.38;3.83;;;;;;;;;;6320920;22;20173;-91
2023/05/19 01:52:35;;;;;;;9.82;4.03;;;;;;;;;;6321369;22;20169;-93
2023/05/19 01:55:43;;;;;;;16.50;3.75;;;;;;;;;;6321469;22;20140;-92
2023/05/19 01:58:51;;;;;;;12.63;4.28;;;;;;;;;;6323531;22;20193;-93
2023/05/19 02:01:58;;;;;;;10.90;3.47;;;;;;;;;;6323174;22;20169;-92
2023/05/19 02:05:10;;;;;;;12.43;4.13;;;;;;;;;;6322707;22;20215;-94
2023/05/19 02:08:19;;;;;;;11.82;3.55;;;;;;;;;;6322283;22;20168;-93
2023/05/19 02:11:28;;;;;;;12.77;4.13;;;;;;;;;;6323026;22;20169;-92
2023/05/19 02:14:34;;;;;;;8.23;3.50;;;;;;;;;;6322946;22;20153;-92
2023/05/19 02:17:47;;;;;;;10.90;4.10;;;;;;;;;;6322170;22;20169;-91
2023/05/19 02:20:52;;;;;;;12.25;4.05;;;;;;;;;;6322130;22;20199;-93
2023/05/19 02:23:57;;;;;;;10.27;4.00;;;;;;;;;;6321765;22;20250;-92
2023/05/19 02:27:05;;;;;;;9.88;4.13;;;;;;;;;;6321428;22;20675;-91
2023/05/19 02:30:11;;;;;;;12.43;3.97;;;;;;;;;;6305803;22;20212;-94
2023/05/19 02:33:26;;;;;;;9.90;4.43;;;;;;;;;;6321613;22;20165;-93
2023/05/19 02:36:34;;;;;;;12.13;5.03;;;;;;;;;;6321287;22;20657;-93
2023/05/19 02:39:38;;;;;;;13.85;4.50;;;;;;;;;;6321050;22;20176;-91
2023/05/19 02:42:44;;;;;;;11.45;4.65;;;;;;;;;;6321621;22;20199;-92
2023/05/19 02:45:50;;;;;;;8.95;4.13;;;;;;;;;;6322453;22;20169;-92
2023/05/19 02:48:57;;;;;;;10.90;4.53;;;;;;;;;;6320733;22;20196;-91
2023/05/19 02:52:03;;;;;;;11.05;3.80;;;;;;;;;;6322188;22;20212;-93
2023/05/19 02:55:08;;;;;;;10.55;4.70;;;;;;;;;;6320376;22;20165;-92
2023/05/19 02:58:14;;;;;;;10.20;4.20;;;;;;;;;;6302405;22;20208;-92
2023/05/19 03:01:21;;;;;;;13.48;4.53;;;;;;;;;;6320241;22;20157;-91
2023/05/19 03:04:29;;;;;;;9.52;4.05;;;;;;;;;;6320696;22;20165;-91
2023/05/19 03:07:33;;;;;;;12.95;4.97;;;;;;;;;;6322102;22;20184;-96
2023/05/19 03:10:38;;;;;;;10.63;3.80;;;;;;;;;;6320474;22;20234;-91
2023/05/19 03:13:44;;;;;;;9.73;4.00;;;;;;;;;;6321286;22;20164;-92
2023/05/19 03:17:00;;;;;;;17.17;4.55;;;;;;;;;;6321487;22;20142;-92
2023/05/19 03:20:09;;;;;;;9.30;4.35;;;;;;;;;;6322097;22;20187;-93
2023/05/19 03:23:14;;;;;;;14.00;4.70;;;;;;;;;;6321941;22;20188;-92
2023/05/19 03:26:46;;;;;;;11.15;4.75;;;;;;;;;;6320063;22;20281;-90
2023/05/19 03:29:52;;;;;;;11.25;4.40;;;;;;;;;;6320414;22;20193;-92
2023/05/19 03:33:00;;;;;;;13.57;5.07;;;;;;;;;;6324346;22;20148;-93
2023/05/19 03:36:07;;;;;;;12.30;4.03;;;;;;;;;;6305526;22;20180;-91
2023/05/19 03:39:16;;;;;;;11.05;4.20;;;;;;;;;;6322034;22;20798;-93
2023/05/19 03:42:23;;;;;;;11.43;3.92;;;;;;;;;;6304917;22;20168;-92
2023/05/19 03:45:28;;;;;;;12.32;4.55;;;;;;;;;;6322171;22;20164;-91
2023/05/19 03:48:34;;;;;;;16.30;4.45;;;;;;;;;;6321864;22;20192;-91
2023/05/19 03:52:02;;;;;;;12.35;4.55;;;;;;;;;;6322015;22;20170;-90
2023/05/19 03:55:36;;;;;;;14.32;4.15;;;;;;;;;;6320717;22;20176;-92
2023/05/19 03:58:42;;;;;;;9.20;4.10;;;;;;;;;;6321920;22;20168;-94
2023/05/19 04:01:47;;;;;;;9.63;4.97;;;;;;;;;;6322980;22;20161;-92
2023/05/19 04:04:52;;;;;;;16.35;4.63;;;;;;;;;;6323732;22;20161;-91
2023/05/19 04:07:59;;;;;;;13.10;4.85;;;;;;;;;;6323319;22;20165;-91
2023/05/19 04:11:04;;;;;;;14.85;4.53;;;;;;;;;;6320049;22;20164;-91
2023/05/19 04:14:10;;;;;;;16.17;4.53;;;;;;;;;;6322301;22;20153;-92
2023/05/19 04:17:20;;;;;;;10.98;4.70;;;;;;;;;;6320893;22;20161;-92
2023/05/19 04:20:26;;;;;;;10.07;4.55;;;;;;;;;;6321849;22;20269;-92
2023/05/19 04:23:33;;;;;;;15.32;4.60;;;;;;;;;;6322080;22;20197;-91
2023/05/19 04:27:04;;;;;;;11.88;4.65;;;;;;;;;;6322431;22;20284;-92
2023/05/19 04:30:10;;;;;;;11.73;4.88;;;;;;;;;;6323346;22;20193;-92
2023/05/19 04:33:18;;;;;;;20.33;6.15;;;;;;;;;;6324249;22;20161;-92
2023/05/19 04:36:24;;;;;;;11.27;4.72;;;;;;;;;;6307679;22;20168;-93
2023/05/19 04:39:37;;;;;;;33.58;6.78;;;;;;;;;;6322926;22;20165;-92
2023/05/19 04:42:44;;;;;;;11.93;4.22;;;;;;;;;;6323815;22;20212;-91
2023/05/19 04:45:51;;;;;;;10.25;4.03;;;;;;;;;;6323345;22;20161;-92
2023/05/19 04:49:00;;;;;;;15.00;4.88;;;;;;;;;;6303521;22;20197;-92
2023/05/19 04:52:06;;;;;;;9.73;4.53;;;;;;;;;;6321346;22;20169;-92
2023/05/19 04:55:15;;;;;;;15.85;5.07;;;;;;;;;;6321911;22;20169;-90
2023/05/19 04:58:24;;;;;;;15.23;5.20;;;;;;;;;;6321712;22;20223;-92
2023/05/19 05:01:31;;;;;;;9.15;4.32;;;;;;;;;;6321836;22;20165;-91
2023/05/19 05:04:41;;;;;;;14.45;4.78;;;;;;;;;;6322207;22;20165;-93
2023/05/19 05:07:46;;;;;;;10.52;4.22;;;;;;;;;;6303191;22;20169;-89
2023/05/19 05:10:54;;;;;;;10.70;4.35;;;;;;;;;;6321208;22;20262;-91
2023/05/19 05:14:00;;;;;;;16.08;5.38;;;;;;;;;;6305082;22;20165;-90
2023/05/19 05:17:08;;;;;;;15.57;4.97;;;;;;;;;;6322118;22;20169;-92
2023/05/19 05:20:18;;;;;;;13.48;5.00;;;;;;;;;;6322232;22;20307;-91
2023/05/19 05:23:25;;;;;;;10.98;4.72;;;;;;;;;;6320554;22;20176;-91
2023/05/19 05:26:34;;;;;;;10.13;4.45;;;;;;;;;;6321446;22;20168;-91
2023/05/19 05:29:39;;;;;;;18.70;4.40;;;;;;;;;;6323271;22;20275;-88
2023/05/19 05:32:45;;;;;;;12.48;4.28;;;;;;;;;;6321313;22;20233;-90
2023/05/19 05:36:05;;;;;;;12.88;4.28;;;;;;;;;;6323177;22;20168;-92
2023/05/19 05:39:11;;;;;;;12.48;3.97;;;;;;;;;;6323636;22;20168;-93
2023/05/19 05:42:20;;;;;;;9.73;3.60;;;;;;;;;;6322353;22;20165;-91
2023/05/19 05:45:27;;;;;;;13.98;4.30;;;;;;;;;;6322692;22;20762;-93
2023/05/19 05:48:36;;;;;;;12.38;3.95;;;;;;;;;;6321096;22;20164;-92
2023/05/19 05:51:43;;;;;;;11.93;3.33;;;;;;;;;;6306331;22;20216;-91
2023/05/19 05:54:53;;;;;;;15.48;4.70;;;;;;;;;;6324757;22;20633;-91
2023/05/19 05:58:02;;;;;;;14.32;4.47;;;;;;;;;;6323329;22;20149;-90
2023/05/19 06:01:10;;;;;;;9.02;3.80;;;;;;;;;;6323938;22;20169;-91
2023/05/19 06:04:16;;;;;;;12.57;4.00;;;;;;;;;;6321178;22;20180;-91
2023/05/19 06:07:23;;;;;;;12.77;3.40;;;;;;;;;;6323852;22;20153;-91
2023/05/19 06:10:29;;;;;;;14.52;3.50;;;;;;;;;;6321033;22;20193;-90
2023/05/19 06:13:36;;;;;;;10.25;3.55;;;;;;;;;;6321550;22;20161;-90
2023/05/19 06:16:46;;;;;;;13.60;3.95;;;;;;;;;;6323604;22;20165;-91
2023/05/19 06:19:53;;;;;;;10.50;3.30;;;;;;;;;;6321575;22;20169;-93
2023/05/19 06:23:14;;;;;;;11.98;3.47;;;;;;;;;;6321336;22;20173;-90
2023/05/19 06:26:22;;;;;;;7.20;3.10;;;;;;;;;;6323869;22;20168;-90
2023/05/19 06:29:29;;;;;;;8.80;3.50;;;;;;;;;;6323309;22;20235;-91
2023/05/19 06:32:38;;;;;;;9.93;3.70;;;;;;;;;;6322912;22;20225;-91
2023/05/19 06:35:45;;;;;;;12.13;3.47;;;;;;;;;;6323429;22;20225;-93
2023/05/19 06:38:52;;;;;;;9.07;3.38;;;;;;;;;;6323547;22;20235;-90
2023/05/19 06:41:58;;;;;;;9.18;3.10;;;;;;;;;;6323818;22;20172;-92
2023/05/19 06:45:41;;;;;;;7.70;2.90;;;;;;;;;;6262364;22;20222;-91
2023/05/19 06:48:46;;;;;;;7.97;2.47;;;;;;;;;;6322369;22;20173;-93
2023/05/19 06:51:52;;;;;;;4.68;2.60;;;;;;;;;;6321978;22;20160;-91
2023/05/19 06:55:00;;;;;;;5.30;2.67;;;;;;;;;;6322831;22;20207;-91
2023/05/19 06:58:05;;;;;;;6.22;2.70;;;;;;;;;;6320226;22;20169;-88
2023/05/19 07:01:12;;;;;;;4.97;2.70;;;;;;;;;;6322583;22;20149;-91
2023/05/19 07:04:22;;;;;;;6.10;2.88;;;;;;;;;;6321772;22;20211;-93
2023/05/19 07:07:28;;;;;;;10.90;3.03;;;;;;;;;;6326080;22;20173;-89
2023/05/19 07:10:35;;;;;;;9.63;3.35;;;;;;;;;;6305827;22;20576;-89
2023/05/19 07:13:43;;;;;;;7.95;2.55;;;;;;;;;;6323666;22;20166;-92
2023/05/19 07:16:50;;;;;;;6.88;2.78;;;;;;;;;;6323273;22;20140;-91
2023/05/19 07:19:56;;;;;;;5.97;2.55;;;;;;;;;;6325283;22;20185;-91
2023/05/19 07:23:01;;;;;;;10.52;3.60;;;;;;;;;;6324906;22;20187;-91
2023/05/19 07:26:06;;;;;;;8.80;2.78;;;;;;;;;;6329257;22;20204;-90
2023/05/19 07:29:12;;;;;;;6.28;2.67;;;;;;;;;;6324094;22;20169;-91
2023/05/19 07:32:23;;;;;;;7.75;2.80;;;;;;;;;;6325182;22;20165;-91
2023/05/19 07:35:28;;;;;;;7.25;2.53;;;;;;;;;;6322961;22;20161;-92
2023/05/19 07:38:34;;;;;;;8.43;2.85;;;;;;;;;;6322673;22;20231;-91
2023/05/19 07:41:40;;;;;;;5.28;2.38;;;;;;;;;;6325602;22;20486;-90
2023/05/19 07:44:45;;;;;;;11.60;3.53;;;;;;;;;;6327442;22;20401;-91
2023/05/19 07:47:58;;;;;;;6.90;3.00;;;;;;;;;;6326561;22;20165;-90
2023/05/19 07:51:03;;;;;;;7.90;2.60;;;;;;;;;;6308168;22;20231;-91
2023/05/19 07:54:09;;;;;;;7.45;2.72;;;;;;;;;;6329052;22;20172;-93
2023/05/19 07:57:17;;;;;;;8.85;2.70;;;;;;;;;;6326627;22;20160;-90
2023/05/19 08:00:23;;;;;;;8.82;2.95;;;;;;;;;;6325285;22;20698;-93
2023/05/19 08:03:30;;;;;;;7.10;2.80;;;;;;;;;;6325045;22;20484;-91
2023/05/19 08:06:36;;;;;;;6.72;3.10;;;;;;;;;;6324993;22;20177;-93
2023/05/19 08:09:41;;;;;;;8.07;3.10;;;;;;;;;;6324423;22;20168;-93
2023/05/19 08:12:50;;;;;;;7.47;2.78;;;;;;;;;;6322652;22;20177;-89
2023/05/19 08:15:58;;;;;;;6.22;2.90;;;;;;;;;;6323441;22;20176;-91
2023/05/19 08:19:26;;;;;;;5.40;2.65;;;;;;;;;;6323945;22;20225;-90
2023/05/19 08:26:31;;;;;;;5.85;2.47;;;;;;;;;;6323746;22;20203;-91
2023/05/19 08:29:39;;;;;;;3.72;2.30;;;;;;;;;;6323257;22;20786;-91
2023/05/19 08:32:44;;;;;;;4.85;2.88;;;;;;;;;;6325169;22;20164;-93
2023/05/19 08:35:49;;;;;;;9.43;2.90;;;;;;;;;;6324159;22;20165;-92
2023/05/19 09:02:50;;;;;;;8.23;2.55;;;;;;;;;;6282639;22;20205;-90
2023/05/19 09:05:55;;;;;;;4.78;2.65;;;;;;;;;;6336736;22;20207;-88
2023/05/19 09:09:09;;;;;;;4.47;2.58;;;;;;;;;;6336556;22;20172;-91
2023/05/19 09:12:18;;;;;;;6.10;2.63;;;;;;;;;;6335867;22;20164;-91
2023/05/19 09:15:30;;;;;;;4.93;2.67;;;;;;;;;;6337795;22;20159;-91
2023/05/19 09:18:56;;;;;;;4.50;2.20;;;;;;;;;;6335921;22;20160;-91
2023/05/19 09:22:03;;;;;;;4.68;2.60;;;;;;;;;;6337676;22;20196;-92
2023/05/19 09:25:18;;;;;;;5.88;2.40;;;;;;;;;;6335063;22;20171;-90
2023/05/19 09:28:26;;;;;;;8.88;2.53;;;;;;;;;;6338744;22;20180;-91
2023/05/19 09:31:33;;;;;;;5.45;2.60;;;;;;;;;;6335521;22;20237;-91
2023/05/19 09:34:45;;;;;;;3.75;2.40;;;;;;;;;;6337427;22;20238;-91
2023/05/19 09:37:50;;;;;;;4.70;2.80;;;;;;;;;;6334554;22;20235;-89
2023/05/19 09:40:58;;;;;;;5.43;2.60;;;;;;;;;;6335181;22;20627;-91
2023/05/19 09:44:04;;;;;;;6.90;3.05;;;;;;;;;;6335196;22;20159;-92
2023/05/19 09:47:10;;;;;;;5.00;2.55;;;;;;;;;;6335873;22;20173;-90
2023/05/19 09:50:17;;;;;;;9.00;2.63;;;;;;;;;;6356710;22;20183;-88
2023/05/19 09:53:23;;;;;;;4.00;2.30;;;;;;;;;;6336311;22;20187;-91
2023/05/19 09:56:33;;;;;;;7.00;2.35;;;;;;;;;;6337588;22;20164;-88
2023/05/19 09:59:44;;;;;;;13.38;3.05;;;;;;;;;;6336244;22;20172;-90
2023/05/19 10:02:50;;;;;;;5.78;2.67;;;;;;;;;;6337503;22;20231;-92
2023/05/19 10:05:56;;;;;;;3.75;2.40;;;;;;;;;;6336729;22;20153;-91
2023/05/19 10:09:02;;;;;;;4.68;2.60;;;;;;;;;;6336389;22;20151;-92
2023/05/19 10:12:08;;;;;;;4.32;2.30;;;;;;;;;;6339887;22;20203;-91
2023/05/19 10:15:14;;;;;;;5.30;2.45;;;;;;;;;;6335782;22;20164;-91
2023/05/19 10:18:23;;;;;;;4.18;2.60;;;;;;;;;;6335279;22;20169;-91
2023/05/19 10:21:31;;;;;;;6.95;2.40;;;;;;;;;;6333166;22;20266;-90
2023/05/19 10:24:37;;;;;;;5.25;2.55;;;;;;;;;;6334137;22;20191;-90
2023/05/19 10:27:52;;;;;;;4.45;2.28;;;;;;;;;;6332933;22;20171;-91
2023/05/19 10:31:02;;;;;;;4.85;2.60;;;;;;;;;;6334562;22;20164;-89
2023/05/19 10:34:17;;;;;;;4.68;2.60;;;;;;;;;;6332080;22;20169;-91
2023/05/19 10:37:38;;;;;;;4.93;2.70;;;;;;;;;;6338629;22;20183;-92
2023/05/19 10:40:51;;;;;;;5.90;2.83;;;;;;;;;;6333513;22;20280;-91
2023/05/19 10:44:04;;;;;;;4.18;2.38;;;;;;;;;;6336152;22;20167;-91
2023/05/19 10:47:10;;;;;;;3.72;2.47;;;;;;;;;;6334523;22;20168;-91
2023/05/19 10:50:20;;;;;;;4.68;2.60;;;;;;;;;;6336360;22;20173;-92
2023/05/19 10:53:31;;;;;;;4.07;2.20;;;;;;;;;;6335375;22;20164;-93
2023/05/19 10:56:41;;;;;;;4.85;2.30;;;;;;;;;;6335382;22;20711;-91
2023/05/19 10:59:48;;;;;;;8.15;2.60;;;;;;;;;;6336409;22;20210;-90
2023/05/19 11:02:56;;;;;;;4.22;2.40;;;;;;;;;;6333870;22;20176;-90
2023/05/19 11:06:16;;;;;;;7.22;2.75;;;;;;;;;;6335795;22;20168;-90
2023/05/19 11:09:22;;;;;;;6.28;2.40;;;;;;;;;;6334993;22;20167;-91
2023/05/19 11:12:29;;;;;;;5.13;2.35;;;;;;;;;;6338403;22;20227;-91
2023/05/19 11:15:46;;;;;;;6.80;2.55;;;;;;;;;;6336190;22;20252;-90
2023/05/19 11:18:52;;;;;;;4.53;2.40;;;;;;;;;;6336842;22;20172;-90
2023/05/19 11:22:08;;;;;;;9.25;2.42;;;;;;;;;;6333851;22;20193;-92
2023/05/19 11:25:13;;;;;;;4.88;2.53;;;;;;;;;;6334976;22;20184;-92
2023/05/19 11:28:45;;;;;;;5.65;2.15;;;;;;;;;;6332346;22;20493;-90
2023/05/19 11:31:56;;;;;;;4.25;2.30;;;;;;;;;;6337772;22;20204;-89
2023/05/19 11:35:02;;;;;;;4.57;2.55;;;;;;;;;;6335500;22;20165;-91
2023/05/19 11:38:09;;;;;;;6.20;2.72;;;;;;;;;;6335341;22;20172;-89
2023/05/19 11:41:16;;;;;;;5.22;2.60;;;;;;;;;;6335234;22;20266;-91
2023/05/19 11:44:22;;;;;;;5.40;2.60;;;;;;;;;;6337022;22;20187;-91
2023/05/19 11:47:32;;;;;;;5.47;2.83;;;;;;;;;;6352811;22;20191;-91
2023/05/19 11:50:37;;;;;;;5.05;2.63;;;;;;;;;;6337042;22;20179;-91
2023/05/19 11:53:44;;;;;;;8.38;3.33;;;;;;;;;;6337165;22;20218;-91
2023/05/19 11:56:50;;;;;;;7.53;3.55;;;;;;;;;;6337424;22;20236;-91
2023/05/19 11:59:55;;;;;;;3.50;2.15;;;;;;;;;;6337540;22;20164;-91
2023/05/19 12:03:03;;;;;;;6.18;2.47;;;;;;;;;;6337281;22;20191;-92
2023/05/19 12:06:08;;;;;;;7.15;2.65;;;;;;;;;;6337098;22;20179;-92
2023/05/19 12:09:13;;;;;;;7.35;2.58;;;;;;;;;;6335598;22;20172;-89
2023/05/19 12:12:21;;;;;;;6.65;3.13;;;;;;;;;;6336040;22;20172;-89
2023/05/19 12:15:26;;;;;;;7.70;2.80;;;;;;;;;;6338161;22;20649;-91
2023/05/19 12:18:37;;;;;;;5.00;2.53;;;;;;;;;;6337562;22;20165;-91
2023/05/19 12:21:47;;;;;;;5.65;2.50;;;;;;;;;;6338658;22;20190;-92
2023/05/19 12:25:03;;;;;;;7.13;2.80;;;;;;;;;;6337199;22;20183;-91
2023/05/19 12:28:09;;;;;;;5.45;2.70;;;;;;;;;;6338646;22;20199;-89
2023/05/19 12:31:14;;;;;;;6.13;2.53;;;;;;;;;;6339064;22;20244;-90
2023/05/19 12:34:21;;;;;;;5.95;2.75;;;;;;;;;;6335754;22;20268;-92
2023/05/19 12:37:28;;;;;;;4.60;2.40;;;;;;;;;;6336332;22;20314;-90
2023/05/19 12:40:34;;;;;;;5.55;2.40;;;;;;;;;;6338012;22;20171;-90
2023/05/19 12:43:42;;;;;;;4.82;2.40;;;;;;;;;;6336937;22;20242;-90
2023/05/19 12:46:52;;;;;;;5.82;2.22;;;;;;;;;;6337199;22;20501;-90
2023/05/19 12:50:02;;;;;;;4.80;2.67;;;;;;;;;;6334946;22;20168;-90
2023/05/19 12:53:09;;;;;;;7.68;2.50;;;;;;;;;;6335129;22;20169;-90
2023/05/19 12:56:15;;;;;;;4.35;2.20;;;;;;;;;;6337829;22;20147;-89
2023/05/19 12:59:23;;;;;;;5.93;2.45;;;;;;;;;;6336073;22;20164;-89
2023/05/19 13:02:28;;;;;;;4.45;2.38;;;;;;;;;;6336083;22;20207;-90
2023/05/19 13:05:35;;;;;;;4.10;2.05;;;;;;;;;;6337239;22;20164;-89
2023/05/19 13:08:42;;;;;;;3.03;1.92;;;;;;;;;;6337081;22;20164;-91
2023/05/19 13:11:52;;;;;;;11.85;6.45;;;;;;;;;;6337409;22;20168;-91
2023/05/19 13:14:58;;;;;;;4.82;2.38;;;;;;;;;;6337379;22;20207;-91
2023/05/19 13:18:05;;;;;;;4.53;2.20;;;;;;;;;;6339151;22;20164;-91
2023/05/19 13:21:12;;;;;;;4.18;2.15;;;;;;;;;;6334137;22;20189;-90
2023/05/19 13:24:18;;;;;;;7.97;2.45;;;;;;;;;;6335023;22;20177;-91
2023/05/19 13:31:38;;;;;;;3.97;1.77;;;;;;;;;;6357170;22;20214;-90
2023/05/19 13:34:44;;;;;;;6.70;2.13;;;;;;;;;;6336304;22;20163;-92
2023/05/19 13:37:51;;;;;;;3.92;2.00;;;;;;;;;;6336403;22;20194;-90
2023/05/19 13:40:56;;;;;;;4.50;2.20;;;;;;;;;;6337202;22;20161;-91
2023/05/19 13:44:02;;;;;;;4.15;1.88;;;;;;;;;;6339564;22;20165;-91
2023/05/19 13:47:07;;;;;;;3.17;1.85;;;;;;;;;;6335877;22;20156;-90
2023/05/19 13:50:13;;;;;;;2.88;2.00;;;;;;;;;;6337444;22;20197;-92
2023/05/19 13:53:19;;;;;;;3.28;2.25;;;;;;;;;;6336009;22;20204;-92
2023/05/19 13:56:27;;;;;;;7.90;1.80;;;;;;;;;;6339105;22;20184;-88
2023/05/19 13:59:33;;;;;;;3.50;1.85;;;;;;;;;;6344377;22;20165;-87
2023/05/19 14:02:38;;;;;;;7.80;2.15;;;;;;;;;;6339428;22;20212;-91
2023/05/19 14:05:43;;;;;;;3.35;1.88;;;;;;;;;;6339154;22;20157;-92
2023/05/19 14:08:50;;;;;;;5.05;2.10;;;;;;;;;;6338370;22;20156;-91
2023/05/19 14:12:00;;;;;;;3.17;1.80;;;;;;;;;;6337714;22;20157;-90
2023/05/19 14:15:06;;;;;;;3.33;1.85;;;;;;;;;;6338181;22;20165;-92
2023/05/19 14:23:05;;;;;;;6.50;2.10;;;;;;;;;;6358896;22;20166;-90
2023/05/19 14:30:32;;;;;;;2.75;2.00;;;;;;;;;;6356341;22;20164;-93
2023/05/19 14:33:37;;;;;;;13.55;4.35;;;;;;;;;;6338954;22;20219;-89
2023/05/19 14:36:42;;;;;;;8.02;3.47;;;;;;;;;;6337186;22;20161;-90
2023/05/19 14:39:48;;;;;;;6.43;2.78;;;;;;;;;;6341391;22;20161;-91
2023/05/19 14:42:56;;;;;;;3.47;1.80;;;;;;;;;;6339436;22;20211;-93
2023/05/19 14:49:23;;;;;;;4.82;2.17;;;;;;;;;;6340309;22;20152;-92
2023/05/19 14:52:28;;;;;;;4.47;1.73;;;;;;;;;;6340065;22;20168;-92
2023/05/19 14:55:33;;;;;;;3.60;1.95;;;;;;;;;;6339941;22;20183;-94
2023/05/19 14:58:39;;;;;;;4.35;2.05;;;;;;;;;;6339447;22;20160;-92
2023/05/19 15:01:46;;;;;;;3.42;2.15;;;;;;;;;;6338173;22;20192;-90
2023/05/19 15:04:53;;;;;;;2.05;1.50;;;;;;;;;;6338431;22;20165;-90
2023/05/19 15:07:59;;;;;;;4.35;2.22;;;;;;;;;;6335740;22;20160;-90
2023/05/19 15:11:05;;;;;;;3.17;2.22;;;;;;;;;;6338226;22;20227;-91
2023/05/19 15:14:11;;;;;;;6.38;3.90;;;;;;;;;;6338268;22;20202;-90
2023/05/19 15:17:31;;;;;;;3.38;1.77;;;;;;;;;;6354056;22;20184;-89
2023/05/19 15:20:37;;;;;;;3.03;1.77;;;;;;;;;;6355641;22;20165;-89
2023/05/19 15:31:24;;;;;;;2.90;1.63;;;;;;;;;;6338376;22;20237;-90
2023/05/19 15:34:47;;;;;;;6.25;2.15;;;;;;;;;;6339373;22;20188;-89
2023/05/19 15:37:54;;;;;;;5.75;1.70;;;;;;;;;;6336978;22;20161;-89
2023/05/19 15:41:00;;;;;;;5.35;1.90;;;;;;;;;;6337797;22;20176;-90
2023/05/19 15:44:06;;;;;;;4.53;2.22;;;;;;;;;;6338594;22;20203;-92
2023/05/19 15:47:16;;;;;;;4.13;2.35;;;;;;;;;;6338526;22;20187;-91
2023/05/19 15:50:21;;;;;;;2.90;1.58;;;;;;;;;;6339036;22;20165;-91
2023/05/19 15:53:29;;;;;;;3.80;1.75;;;;;;;;;;6339271;22;20165;-91
2023/05/19 15:56:35;;;;;;;5.80;2.10;;;;;;;;;;6339196;22;20164;-91
2023/05/19 15:59:40;;;;;;;6.63;2.00;;;;;;;;;;6338943;22;20172;-90
2023/05/19 16:02:52;;;;;;;3.85;1.80;;;;;;;;;;6338680;22;20208;-90
2023/05/19 16:05:58;;;;;;;5.38;2.15;;;;;;;;;;6338183;22;20207;-89
2023/05/19 16:09:05;;;;;;;8.32;2.97;;;;;;;;;;6338268;22;20144;-88
2023/05/19 16:12:10;;;;;;;2.50;1.75;;;;;;;;;;6337309;22;20246;-91
2023/05/19 16:15:16;;;;;;;2.97;1.85;;;;;;;;;;6338281;22;20237;-91
2023/05/19 16:18:24;;;;;;;3.08;2.05;;;;;;;;;;6334604;22;20207;-90
2023/05/19 16:21:30;;;;;;;3.30;2.15;;;;;;;;;;6335748;22;20168;-89
2023/05/19 16:24:37;;;;;;;3.97;1.95;;;;;;;;;;6336867;22;20161;-91
2023/05/19 16:27:42;;;;;;;3.30;1.88;;;;;;;;;;6338193;22;20183;-91
2023/05/19 16:30:47;;;;;;;4.78;2.58;;;;;;;;;;6338093;22;20180;-90
2023/05/19 16:33:53;;;;;;;8.75;4.18;;;;;;;;;;6336626;22;20172;-90
2023/05/19 16:36:59;;;;;;;11.07;4.97;;;;;;;;;;6337005;22;20156;-91
2023/05/19 16:40:07;;;;;;;2.72;1.80;;;;;;;;;;6337008;22;20168;-92
2023/05/19 16:43:13;;;;;;;7.57;2.30;;;;;;;;;;6338992;22;20207;-90
2023/05/19 16:46:19;;;;;;;4.25;1.95;;;;;;;;;;6337410;22;20244;-90
2023/05/19 16:49:24;;;;;;;7.00;3.88;;;;;;;;;;6338030;22;20180;-92
2023/05/19 16:52:30;;;;;;;5.93;3.15;;;;;;;;;;6335664;22;20205;-90
2023/05/19 16:55:36;;;;;;;3.80;2.28;;;;;;;;;;6337744;22;20242;-90
2023/05/19 16:58:45;;;;;;;7.13;2.53;;;;;;;;;;6335687;22;20172;-89
2023/05/19 17:01:50;;;;;;;5.22;2.47;;;;;;;;;;6334828;22;20191;-89
2023/05/19 17:04:55;;;;;;;5.05;2.53;;;;;;;;;;6336231;22;20155;-93
2023/05/19 17:08:01;;;;;;;3.60;2.30;;;;;;;;;;6334587;22;20210;-90
2023/05/19 17:11:08;;;;;;;4.80;2.53;;;;;;;;;;6333166;22;20160;-91
2023/05/19 17:14:13;;;;;;;4.45;2.50;;;;;;;;;;6335790;22;20164;-91
2023/05/19 17:21:05;;;;;;;4.13;2.20;;;;;;;;;;6336511;22;20182;-91
2023/05/19 17:24:40;;;;;;;5.88;2.20;;;;;;;;;;6335020;22;20506;-92
2023/05/19 17:27:48;;;;;;;4.97;2.17;;;;;;;;;;6335826;22;20169;-93
2023/05/19 17:30:54;;;;;;;3.50;2.40;;;;;;;;;;6337049;22;20171;-90
2023/05/19 17:33:59;;;;;;;3.60;2.30;;;;;;;;;;6337800;22;20157;-91
2023/05/19 17:37:05;;;;;;;7.57;2.80;;;;;;;;;;6337560;22;20212;-92
2023/05/19 17:40:11;;;;;;;2.70;1.95;;;;;;;;;;6335691;22;20172;-91
2023/05/19 17:43:18;;;;;;;4.78;2.60;;;;;;;;;;6337123;22;20690;-90
2023/05/19 17:46:23;;;;;;;4.97;2.78;;;;;;;;;;6336499;22;20615;-90
2023/05/19 17:49:28;;;;;;;6.65;2.70;;;;;;;;;;6334721;22;20168;-90
2023/05/19 17:52:34;;;;;;;6.47;2.63;;;;;;;;;;6335220;22;20471;-91
2023/05/19 17:55:40;;;;;;;5.15;2.53;;;;;;;;;;6334521;22;20168;-89
2023/05/19 17:58:48;;;;;;;3.50;2.80;;;;;;;;;;6335646;22;20152;-91
2023/05/19 18:01:54;;;;;;;3.25;2.30;;;;;;;;;;6336223;22;20622;-89
2023/05/19 18:04:59;;;;;;;5.95;2.78;;;;;;;;;;6334693;22;20168;-89
2023/05/19 18:08:08;;;;;;;5.75;2.80;;;;;;;;;;6333771;22;20168;-91
2023/05/19 18:11:14;;;;;;;5.88;3.00;;;;;;;;;;6336458;22;20168;-91
2023/05/19 18:14:22;;;;;;;5.38;2.80;;;;;;;;;;6335448;22;20168;-91
2023/05/19 18:17:27;;;;;;;5.82;2.78;;;;;;;;;;6334652;22;20663;-90
2023/05/19 18:20:32;;;;;;;5.93;2.95;;;;;;;;;;6335123;22;20164;-92
2023/05/19 18:23:52;;;;;;;5.25;3.42;;;;;;;;;;6334687;22;20210;-93
2023/05/19 18:27:28;;;;;;;8.80;3.85;;;;;;;;;;6336361;22;20275;-91
2023/05/19 18:30:35;;;;;;;4.50;2.78;;;;;;;;;;6334822;22;20149;-91
2023/05/19 18:33:41;;;;;;;4.43;3.00;;;;;;;;;;6335423;22;20446;-91
2023/05/19 18:36:46;;;;;;;7.25;3.28;;;;;;;;;;6337134;22;20183;-90
2023/05/19 18:39:52;;;;;;;5.80;3.33;;;;;;;;;;6341803;22;20168;-90
2023/05/19 18:42:57;;;;;;;11.43;6.78;;;;;;;;;;6333348;22;20523;-92
2023/05/19 18:46:03;;;;;;;22.17;7.75;;;;;;;;;;6332379;22;20238;-92
2023/05/19 18:49:08;;;;;;;8.63;3.83;;;;;;;;;;6331092;22;20168;-91
2023/05/19 18:52:13;;;;;;;13.68;3.05;;;;;;;;;;6332019;22;20196;-91
2023/05/19 18:55:18;;;;;;;7.88;3.80;;;;;;;;;;6334025;22;20218;-92
2023/05/19 18:58:23;;;;;;;10.10;3.10;;;;;;;;;;6333314;22;20164;-91
2023/05/19 19:01:30;;;;;;;7.65;3.08;;;;;;;;;;6336114;22;20255;-90
2023/05/19 19:04:35;;;;;;;5.50;3.13;;;;;;;;;;6336261;22;20498;-89
2023/05/19 19:07:41;;;;;;;6.90;3.20;;;;;;;;;;6336140;22;20164;-91
2023/05/19 19:10:49;;;;;;;10.35;4.25;;;;;;;;;;6337074;22;20234;-91
2023/05/19 19:13:55;;;;;;;7.53;4.07;;;;;;;;;;6336985;22;20172;-89
2023/05/19 19:17:02;;;;;;;7.50;3.83;;;;;;;;;;6336120;22;20176;-91
2023/05/19 19:20:08;;;;;;;6.90;3.40;;;;;;;;;;6339223;22;20176;-90
2023/05/19 19:23:24;;;;;;;8.63;3.97;;;;;;;;;;6336867;22;20270;-90
2023/05/19 19:26:29;;;;;;;6.03;3.22;;;;;;;;;;6337685;22;20192;-90
2023/05/19 19:29:34;;;;;;;5.60;3.30;;;;;;;;;;6337087;22;20157;-90
2023/05/19 19:32:40;;;;;;;3.80;2.65;;;;;;;;;;6336745;22;20219;-89
2023/05/19 19:35:46;;;;;;;5.97;3.55;;;;;;;;;;6336965;22;20153;-90
2023/05/19 19:38:51;;;;;;;4.95;3.20;;;;;;;;;;6336000;22;20164;-91